Flight Track Log - Related Links

Times and Time Zones

All times are in EDT time to prevent confusion due to time zone crossing. See the N654DL flight status page for this flight to view local times or setup timezone preferences in your user account.

Time Position Orientation Groundspeed Altitude Reporting Facility
EDT Latitude Longitude Course Direction KTS MPH feet Rate Location/Type
10:45AM 42.2036 -83.3556 202° Southwest 150 173 1,500  Level Cleveland Center
10:46AM 42.1697 -83.3847 213° Southwest 222 255 2,900 2,455 Climbing Cleveland Center
10:47AM 42.1103 -83.4297 209° Southwest 239 275 6,000 3,122 Climbing Cleveland Center
10:48AM 42.0428 -83.4547 195° South 272 313 9,300 2,804 Climbing Cleveland Center
10:49AM 41.7163 -83.2331 180° South  Level Estimated
10:49AM 41.9869 -83.4383 168° South 292 336 11,000  Level Cleveland Center
10:50AM 41.5922 -83.2033 180° South  Level Estimated
10:50AM 41.9061 -83.4150 168° South 317 365 12,000  Level Cleveland Center
10:51AM 41.4682 -83.1736 202° Southwest  Level Estimated
10:51AM 41.8089 -83.3858 167° South 343 395 13,300  Level Cleveland Center
10:52AM 41.7014 -83.3506 166° South 377 434 15,700 2,200 Climbing Cleveland Center
10:53AM 41.5911 -83.3375 175° South 397 457 17,700 2,000 Climbing Cleveland Center
10:54AM 41.4803 -83.3575 188° South 403 464 19,700 2,100 Climbing Cleveland Center
10:55AM 41.3764 -83.4197 204° Southwest 403 464 21,900 1,950 Climbing Cleveland Center
10:56AM 41.2708 -83.4814 204° Southwest 409 471 23,600 1,050 Climbing Cleveland Center
10:57AM 41.1650 -83.5428 204° Southwest 419 482 24,000 200 Climbing Cleveland Center
10:58AM 41.0483 -83.6119 204° Southwest 419 482 24,000 424 Level Cleveland Center
11:00AM 40.8308 -83.7350 203° Southwest 423 487 25,300 871 Climbing Indianapolis Center
11:01AM 40.7089 -83.7714 193° South 445 512 26,700 823 Climbing Indianapolis Center
11:02AM 40.5808 -83.7703 180° South 454 522 27,000 146 Climbing Indianapolis Center
11:03AM 40.4564 -83.7700 180° South 447 514 27,000  Level Indianapolis Center
11:04AM 40.3306 -83.7703 180° South 447 514 27,000  Level Indianapolis Center
11:05AM 40.2039 -83.7528 174° South 458 527 27,000  Level Indianapolis Center
11:06AM 40.0547 -83.7117 168° South 465 535 27,000  Level Indianapolis Center
11:07AM 39.9292 -83.6781 168° South 463 533 27,000  Level Indianapolis Center
11:08AM 39.8053 -83.6467 169° South 459 528 27,000  Level Indianapolis Center
11:09AM 39.6825 -83.6144 169° South 455 524 27,000  Level Indianapolis Center
11:10AM 39.5583 -83.5828 169° South 454 522 27,000  Level Indianapolis Center
11:11AM 39.4133 -83.5453 169° South 452 520 27,000  Level Indianapolis Center
11:12AM 39.2897 -83.5131 169° South 451 519 27,000  Level Indianapolis Center
11:14AM 39.1644 -83.4819 169° South 453 521 27,000  Level Indianapolis Center
11:15AM 39.0419 -83.4506 169° South 448 516 27,000  Level Indianapolis Center
11:16AM 38.9167 -83.4192 169° South 454 522 27,000  Level Indianapolis Center
11:17AM 38.7917 -83.3867 169° South 455 524 27,000  Level Indianapolis Center
11:18AM 38.6669 -83.3575 170° South 453 521 27,000  Level Indianapolis Center
11:19AM 38.5408 -83.3244 168° South 454 522 27,000  Level Indianapolis Center
11:20AM 38.4164 -83.2944 169° South 455 524 27,000  Level Indianapolis Center
11:21AM 38.2689 -83.2594 169° South 459 528 27,000  Level Indianapolis Center
11:22AM 38.1428 -83.2283 169° South 461 531 27,000  Level Indianapolis Center
11:23AM 38.0169 -83.1978 169° South 457 526 27,000  Level Indianapolis Center
11:24AM 37.8914 -83.1678 169° South 460 529 27,000  Level Indianapolis Center
11:25AM 37.7647 -83.1383 170° South 461 531 27,000  Level Indianapolis Center
11:26AM 37.6386 -83.1072 169° South 457 526 27,000  Level Indianapolis Center
11:27AM 37.4922 -83.0725 169° South 457 526 27,000  Level Indianapolis Center
11:28AM 37.3661 -83.0428 169° South 460 529 27,000 195 Level Indianapolis Center
11:29AM 37.2394 -83.0119 169° South 462 532 27,400 878 Climbing Indianapolis Center
11:30AM 37.1131 -82.9822 169° South 461 531 28,800 774 Climbing Indianapolis Center
11:31AM 36.9881 -82.9533 170° South 461 531 29,000 98 Climbing Indianapolis Center
11:32AM 36.8625 -82.9228 169° South 470 541 29,000  Level Indianapolis Center
11:33AM 36.7056 -82.8892 170° South 481 554 29,000  Level Atlanta Center
11:34AM 36.5761 -82.8572 169° South 481 554 29,000  Level Atlanta Center
11:35AM 36.4464 -82.8283 170° South 481 554 29,000  Level Atlanta Center
11:36AM 36.3169 -82.7967 169° South 481 554 29,000  Level Atlanta Center
11:37AM 36.1872 -82.7653 169° South 481 554 29,000  Level Atlanta Center
11:38AM 36.0578 -82.7392 171° South 481 554 29,000  Level Atlanta Center
11:39AM 35.9300 -82.7078 169° South 470 541 29,000  Level Atlanta Center
11:40AM 35.7983 -82.6767 169° South 470 541 29,000  Level Atlanta Center
11:41AM 35.6686 -82.6481 170° South 475 547 29,000  Level Atlanta Center
11:42AM 35.5369 -82.6197 170° South 481 554 29,000  Level Atlanta Center
11:43AM 35.4114 -82.5939 170° South 481 554 29,000  Level Atlanta Center
11:44AM 35.2797 -82.5631 169° South 476 548 29,000  Level Atlanta Center
11:45AM 35.1478 -82.5325 169° South 476 548 29,000  Level Atlanta Center
11:46AM 35.0200 -82.5017 169° South 481 554 29,000  Level Atlanta Center
11:47AM 34.8883 -82.4739 170° South 481 554 29,000  Level Atlanta Center
11:48AM 34.7689 -82.4458 169° South 488 562 29,000  Level Atlanta Center
11:49AM 34.6414 -82.4178 170° South 482 555 29,000  Level Atlanta Center
11:50AM 34.5136 -82.3900 170° South 482 555 29,000  Level Atlanta Center
11:51AM 34.3881 -82.3622 170° South 469 540 29,000  Level Atlanta Center
11:52AM 34.2603 -82.3347 170° South 469 540 29,000  Level Atlanta Center
11:53AM 34.1306 -82.3072 170° South 469 540 29,000  Level Atlanta Center
11:54AM 34.0028 -82.2772 169° South 473 544 29,000  Level Atlanta Center
11:55AM 33.8731 -82.2475 169° South 473 544 29,000 -50 Level Atlanta Center
11:56AM 33.7286 -82.2156 170° South 473 544 28,900 -500 Descending Atlanta Center
11:57AM 33.5986 -82.1883 170° South 473 544 28,000 -450 Descending Atlanta Center
11:58AM 33.4667 -82.1611 170° South 478 550 28,000  Level Atlanta Center
11:59AM 33.3347 -82.1317 169° South 478 550 28,000  Level Atlanta Center
12:00PM 33.2031 -82.1047 170° South 483 556 28,000  Level Atlanta Center
12:01PM 33.0731 -82.0781 170° South 483 556 28,000  Level Atlanta Center
12:03PM 32.8108 -82.0200 169° South 499 574 28,000  Level Jacksonville Center
12:04PM 32.6811 -81.9992 172° South 489 563 28,000  Level Jacksonville Center
12:05PM 32.5347 -81.9661 169° South 487 560 28,000  Level Jacksonville Center
12:06PM 32.4008 -81.9378 170° South 487 560 28,000  Level Jacksonville Center
12:07PM 32.2817 -81.9122 170° South 487 560 28,000  Level Jacksonville Center
12:08PM 32.1394 -81.8817 170° South 480 552 28,000  Level Jacksonville Center
12:09PM 32.0225 -81.8561 170° South 485 558 28,000  Level Jacksonville Center
12:10PM 31.8781 -81.8258 170° South 484 557 28,000  Level Jacksonville Center
12:11PM 31.7483 -81.7981 170° South 484 557 28,000  Level Jacksonville Center
12:12PM 31.6356 -81.7750 170° South 484 557 28,000  Level Jacksonville Center
12:13PM 31.4889 -81.7425 169° South 484 557 28,000  Level Jacksonville Center
12:14PM 31.3761 -81.7222 171° South 479 551 28,000  Level Jacksonville Center
12:15PM 31.2339 -81.6947 171° South 473 544 28,000  Level Jacksonville Center
12:16PM 31.1042 -81.6672 170° South 473 544 28,000  Level Jacksonville Center
12:17PM 30.9744 -81.6422 171° South 473 544 28,000  Level Jacksonville Center
12:18PM 30.8447 -81.6150 170° South 468 539 28,000  Level Jacksonville Center
12:19PM 30.7169 -81.5878 170° South 468 539 28,000  Level Jacksonville Center
12:20PM 30.5872 -81.5606 170° South 468 539 28,000  Level Jacksonville Center
12:21PM 30.4575 -81.5358 171° South 468 539 28,000  Level Jacksonville Center
12:22PM 30.3531 -81.5133 169° South 468 539 28,000  Level Jacksonville Center
12:23PM 30.2125 -81.4622 163° South 468 539 28,000  Level Jacksonville Center
12:24PM 30.0867 -81.4161 162° South 473 544 28,000  Level Jacksonville Center
12:25PM 29.9608 -81.3678 162° South 478 550 28,000  Level Jacksonville Center
12:26PM 29.8331 -81.3194 162° South 483 556 28,000  Level Jacksonville Center
12:27PM 29.7072 -81.2689 161° South 483 556 28,000  Level Jacksonville Center
12:28PM 29.5792 -81.2208 162° South 483 556 28,000  Level Jacksonville Center
12:29PM 29.4428 -81.1683 161° South 475 547 28,000  Level Jacksonville Center
12:30PM 29.3167 -81.1158 160° South 481 554 28,000  Level Jacksonville Center
12:31PM 29.2131 -81.0178 140° Southeast 488 562 28,000  Level Jacksonville Center
12:33PM 29.0100 -80.8028 137° Southeast 498 573 28,000  Level Miami Center
12:34PM 28.9028 -80.6828 136° Southeast 488 562 28,000  Level Miami Center
12:35PM 28.8014 -80.5753 137° Southeast 494 568 28,000  Level Miami Center
12:36PM 28.7039 -80.4703 137° Southeast 494 568 28,000  Level Miami Center
12:37PM 28.6125 -80.3703 136° Southeast 494 568 28,000  Level Miami Center
12:38PM 28.5128 -80.2633 137° Southeast 494 568 28,000  Level Miami Center
12:39PM 28.3897 -80.1697 146° Southeast 494 568 28,000  Level Miami Center
12:40PM 28.2594 -80.1189 161° South 489 563 28,000 -300 Level Miami Center
12:41PM 28.1311 -80.0728 162° South 489 563 27,400 -850 Descending Miami Center
12:42PM 28.0153 -80.0294 162° South 489 563 26,300 -1,050 Descending Miami Center
12:43PM 27.8867 -79.9836 163° South 489 563 25,300 -1,000 Descending Miami Center
12:44PM 27.7439 -79.9328 163° South 495 570 24,300 -650 Descending Miami Center
12:45PM 27.6133 -79.8872 163° South 495 570 24,000 -150 Descending Miami Center
12:46PM 27.4911 -79.8417 162° South 478 550 24,000  Level Miami Center
12:47PM 27.3706 -79.8153 169° South 484 557 24,000 -200 Level Miami Center
12:48PM 27.2436 -79.7886 169° South 484 557 23,600 -1,550 Descending Miami Center
12:49PM 27.1106 -79.7597 169° South 457 526 20,900 -2,400 Descending Miami Center
12:50PM 26.9942 -79.7358 170° South 443 510 18,800 -1,950 Descending Miami Center
12:51PM 26.8797 -79.7142 170° South 431 496 17,000 -1,850 Descending Miami Center
12:52PM 26.7714 -79.6908 169° South 406 467 15,100 -1,600 Descending Miami Center
12:53PM 26.6706 -79.7208 195° South 365 420 13,800 -1,615 Descending Miami Center
12:54PM 26.6031 -79.7564 205° Southwest 365 420 12,300 -2,200 Descending Miami Center
12:54PM 26.5778 -79.7650 197° South 371 427 11,600 -2,512 Descending Miami Center
12:55PM 26.5378 -79.7872 206° Southwest 357 411 10,500 -2,400 Descending Miami Center
12:55PM 26.4892 -79.8092 202° Southwest 365 420 9,200 -2,361 Descending Miami Center
12:56PM 26.4492 -79.8269 202° Southwest 338 389 8,100 -1,100 Descending Miami Center
12:56PM 26.4133 -79.8444 204° Southwest 345 397 8,100 -197 Level Miami Center
12:57PM 26.3647 -79.8758 210° Southwest 321 369 7,900 -200 Descending Miami Center
12:57PM 26.3369 -79.9028 221° Southwest 322 371 7,900 -882 Level Miami Center
12:58PM 26.3028 -79.9367 222° Southwest 260 299 6,900 -900 Descending Miami Center
12:58PM 26.2878 -79.9503 219° Southwest 280 322 7,000 218 Climbing Miami Center
12:59PM 26.2475 -79.9861 219° Southwest 262 302 7,100  Climbing Miami Center
12:59PM 26.2239 -80.0111 224° Southwest 271 312 7,000  Descending Miami Center
01:00PM 26.1897 -80.0450 222° Southwest 269 310 7,100  Climbing Miami Center
01:00PM 26.1744 -80.0744 240° Southwest 266 306 7,000  Descending Miami Center
01:01PM 26.1633 -80.1114 251° West 272 313 7,100  Climbing Miami Center
01:01PM 26.1519 -80.1528 253° West 260 299 7,000 -295 Descending Miami Center
01:02PM 26.1467 -80.1964 262° West 278 320 6,800 -900 Descending Miami Center
01:02PM 26.1500 -80.2336 276° West 260 299 6,100 -1,180 Descending Miami Center
01:03PM 26.1450 -80.2750 262° West 247 284 5,600 -1,300 Descending Miami Center
01:03PM 26.1506 -80.3053 282° West 254 292 4,800 -1,574 Descending Miami Center
01:04PM 26.1331 -80.3372 239° Southwest 210 242 4,000 -1,468 Descending Miami Center
01:05PM 26.0833 -80.3150 158° South 179 206 2,500 -1,452 Descending Miami Center

Login

Don't have an account? Register now (free) for customized features, flight alerts, and more!